Time;durP1;ratioP1;P1;durP2;ratioP2;P2;SDS_P1;SDS_P2;PMS_P1;PMS_P2;Temp;Humidity;BMP_temperature;BMP_pressure;BME280_temperature;BME280_humidity;BME280_pressure;Samples;Min_cycle;Max_cycle;Signal;HPM_P1;HPM_P2
2022/11/03 00:01:44;;;;;;;;;;;6.60;99.90;;;;;;2603432;54;20773;31
2022/11/03 00:04:19;;;;;;;;;;;6.50;99.90;;;;;;2603495;54;19935;31
2022/11/03 00:06:54;;;;;;;;;;;6.40;99.90;;;;;;2602673;54;19934;31
2022/11/03 00:09:32;;;;;;;;;;;6.40;99.90;;;;;;2603383;54;19935;31
2022/11/03 00:12:08;;;;;;;;;;;6.40;99.90;;;;;;2622100;46;19941;31
2022/11/03 00:14:43;;;;;;;;;;;6.40;99.90;;;;;;2603588;54;19969;31
2022/11/03 00:17:17;;;;;;;;;;;6.40;99.90;;;;;;2602730;54;19934;31
2022/11/03 00:19:51;;;;;;;;;;;6.30;99.90;;;;;;2603338;54;20775;31
2022/11/03 00:22:25;;;;;;;;;;;6.30;99.90;;;;;;2701081;39;21375;31
2022/11/03 00:25:03;;;;;;;;;;;6.20;99.90;;;;;;2603497;54;19980;31
2022/11/03 00:27:37;;;;;;;;;;;6.20;99.90;;;;;;2622029;46;20818;31
2022/11/03 00:30:13;;;;;;;;;;;6.20;99.90;;;;;;2603471;54;20777;31
2022/11/03 00:32:49;;;;;;;;;;;6.10;99.90;;;;;;2603477;54;19934;31
2022/11/03 00:35:24;;;;;;;;;;;6.20;99.90;;;;;;2621930;46;19941;31
2022/11/03 00:37:57;;;;;;;;;;;6.10;99.90;;;;;;2603433;54;19941;31
2022/11/03 00:40:34;;;;;;;;;;;6.10;99.90;;;;;;2621912;46;20793;31
2022/11/03 00:43:09;;;;;;;;;;;6.00;99.90;;;;;;2603568;54;20723;31
2022/11/03 00:45:44;;;;;;;;;;;6.00;99.90;;;;;;2603183;54;19941;31
2022/11/03 00:48:33;;;;;;;;;;;5.90;99.90;;;;;;2620204;46;19935;31
2022/11/03 00:51:07;;;;;;;;;;;5.90;99.90;;;;;;2603331;54;19934;31
2022/11/03 00:53:44;;;;;;;;;;;5.90;99.90;;;;;;2603207;54;20724;31
2022/11/03 00:56:21;;;;;;;;;;;5.90;99.90;;;;;;2603353;54;20847;31
2022/11/03 00:58:55;;;;;;;;;;;5.90;99.90;;;;;;2603460;54;20770;31
2022/11/03 01:01:30;;;;;;;;;;;5.90;99.90;;;;;;2621827;46;19942;31
2022/11/03 01:06:53;;;;;;;;;;;5.80;99.90;;;;;;2603347;54;19940;31
2022/11/03 01:09:28;;;;;;;;;;;5.70;99.90;;;;;;2621592;47;20013;31
2022/11/03 01:12:05;;;;;;;;;;;5.70;99.90;;;;;;2603407;54;20048;31
2022/11/03 01:14:39;;;;;;;;;;;5.70;99.90;;;;;;2603469;54;19934;31
2022/11/03 01:17:15;;;;;;;;;;;5.70;99.90;;;;;;2621423;47;19938;31
2022/11/03 01:19:48;;;;;;;;;;;5.60;99.90;;;;;;2603031;54;20809;31
2022/11/03 01:22:23;;;;;;;;;;;5.60;99.90;;;;;;2774167;31;21459;31
2022/11/03 01:24:57;;;;;;;;;;;5.60;99.90;;;;;;2622600;46;19946;31
2022/11/03 01:27:35;;;;;;;;;;;5.60;99.90;;;;;;2603869;54;19935;31
2022/11/03 01:30:11;;;;;;;;;;;5.60;99.90;;;;;;2622832;46;20726;31
2022/11/03 01:32:46;;;;;;;;;;;5.50;99.90;;;;;;2603924;54;20741;31
2022/11/03 01:35:23;;;;;;;;;;;5.50;99.90;;;;;;2604148;54;20762;31
2022/11/03 01:37:58;;;;;;;;;;;5.40;99.90;;;;;;2622599;46;20757;31
2022/11/03 01:40:31;;;;;;;;;;;5.40;99.90;;;;;;2603855;54;20017;31
2022/11/03 01:43:21;;;;;;;;;;;5.40;99.90;;;;;;2604068;54;19935;31
2022/11/03 01:46:00;;;;;;;;;;;5.40;99.90;;;;;;2603775;54;20785;31
2022/11/03 01:48:35;;;;;;;;;;;5.40;99.90;;;;;;2604070;54;19941;31
2022/11/03 01:51:09;;;;;;;;;;;5.40;99.90;;;;;;2603846;54;19941;31
2022/11/03 01:53:43;;;;;;;;;;;5.30;99.90;;;;;;2604182;54;20785;31
2022/11/03 01:56:18;;;;;;;;;;;5.30;99.90;;;;;;2604229;54;19934;31
2022/11/03 01:58:56;;;;;;;;;;;5.30;99.90;;;;;;2622340;46;19938;31
2022/11/03 02:01:30;;;;;;;;;;;5.20;99.90;;;;;;2603848;54;20005;31
2022/11/03 02:04:03;;;;;;;;;;;5.70;99.90;;;;;;2603816;54;20800;31
2022/11/03 02:06:36;;;;;;;;;;;5.00;99.90;;;;;;2622554;46;20025;31
2022/11/03 02:09:10;;;;;;;;;;;5.00;99.90;;;;;;2603681;54;20024;31
2022/11/03 02:14:34;;;;;;;;;;;5.00;99.90;;;;;;2622759;46;19935;31
2022/11/03 02:17:09;;;;;;;;;;;4.90;99.90;;;;;;2603927;54;19961;31
2022/11/03 02:19:46;;;;;;;;;;;4.90;99.90;;;;;;2603764;54;19974;31
2022/11/03 02:22:35;;;;;;;;;;;4.90;99.90;;;;;;2622606;46;19962;31
2022/11/03 02:25:14;;;;;;;;;;;4.90;99.90;;;;;;2603626;54;20761;31
2022/11/03 02:27:53;;;;;;;;;;;4.90;99.90;;;;;;2604121;54;20032;31
2022/11/03 02:30:27;;;;;;;;;;;4.90;99.90;;;;;;2603765;54;20377;31
2022/11/03 02:33:03;;;;;;;;;;;4.80;99.90;;;;;;2622327;46;19935;31
2022/11/03 02:35:40;;;;;;;;;;;4.80;99.90;;;;;;2621871;46;19941;31
2022/11/03 02:38:15;;;;;;;;;;;4.80;99.90;;;;;;2622396;46;19934;31
2022/11/03 02:40:50;;;;;;;;;;;4.80;99.90;;;;;;2622369;46;20025;31
2022/11/03 02:43:28;;;;;;;;;;;4.70;99.90;;;;;;2603804;54;20821;31
2022/11/03 02:46:03;;;;;;;;;;;4.80;99.90;;;;;;2622437;46;20017;31
2022/11/03 02:48:38;;;;;;;;;;;5.70;99.90;;;;;;2622220;46;19946;31
2022/11/03 02:51:12;;;;;;;;;;;4.70;99.90;;;;;;2622616;46;19958;31
2022/11/03 02:53:46;;;;;;;;;;;4.60;99.90;;;;;;2622025;46;20701;31
2022/11/03 02:56:22;;;;;;;;;;;4.60;99.90;;;;;;2622286;46;19942;31
2022/11/03 02:58:59;;;;;;;;;;;4.60;99.90;;;;;;2604043;54;19935;31
2022/11/03 03:01:35;;;;;;;;;;;4.50;99.90;;;;;;2622392;46;19935;31
2022/11/03 03:04:10;;;;;;;;;;;4.40;99.90;;;;;;2603490;54;19935;31
2022/11/03 03:06:45;;;;;;;;;;;4.50;99.90;;;;;;2621990;46;19934;31
2022/11/03 03:09:20;;;;;;;;;;;4.40;99.90;;;;;;2603734;54;19935;31
2022/11/03 03:11:54;;;;;;;;;;;4.40;99.90;;;;;;2622498;46;20772;31
2022/11/03 03:14:34;;;;;;;;;;;4.40;99.90;;;;;;2603706;54;19942;31
2022/11/03 03:17:09;;;;;;;;;;;4.40;99.90;;;;;;2603682;54;19935;31
2022/11/03 03:19:45;;;;;;;;;;;4.40;99.90;;;;;;2621953;46;19989;31
2022/11/03 03:22:22;;;;;;;;;;;5.40;99.90;;;;;;2622367;46;19941;31
2022/11/03 03:25:00;;;;;;;;;;;4.40;99.90;;;;;;2617854;46;19962;31
2022/11/03 03:27:36;;;;;;;;;;;4.40;99.90;;;;;;2622021;46;19989;31
2022/11/03 03:30:14;;;;;;;;;;;4.30;99.90;;;;;;2603539;54;20028;31
2022/11/03 03:32:49;;;;;;;;;;;4.30;99.90;;;;;;2603753;54;20844;31
2022/11/03 03:35:24;;;;;;;;;;;4.30;99.90;;;;;;2622338;46;20741;31
2022/11/03 03:38:01;;;;;;;;;;;4.20;99.90;;;;;;2622171;46;19935;31
2022/11/03 03:40:37;;;;;;;;;;;4.20;99.90;;;;;;2622063;46;19977;31
2022/11/03 03:43:11;;;;;;;;;;;4.20;99.90;;;;;;2603528;54;20783;31
2022/11/03 03:45:48;;;;;;;;;;;4.20;99.90;;;;;;2603406;54;19935;31
2022/11/03 03:48:22;;;;;;;;;;;4.20;99.90;;;;;;2603611;54;19941;31
2022/11/03 03:50:58;;;;;;;;;;;4.10;99.90;;;;;;2621882;46;19934;31
2022/11/03 03:53:31;;;;;;;;;;;4.10;99.90;;;;;;2622158;46;20021;31
2022/11/03 03:56:07;;;;;;;;;;;4.10;99.90;;;;;;2603445;54;19989;31
2022/11/03 03:58:42;;;;;;;;;;;4.20;99.90;;;;;;2603677;54;20025;31
2022/11/03 04:01:18;;;;;;;;;;;4.20;99.90;;;;;;2603613;54;19946;31
2022/11/03 04:03:52;;;;;;;;;;;4.10;99.90;;;;;;2616980;46;20731;31
2022/11/03 04:06:27;;;;;;;;;;;4.10;99.90;;;;;;2621984;46;19939;31
2022/11/03 04:09:02;;;;;;;;;;;4.00;99.90;;;;;;2603048;54;19939;31
2022/11/03 04:25:36;;;;;;;;;;;4.00;99.90;;;;;;2603529;54;19935;31
2022/11/03 04:28:11;;;;;;;;;;;4.00;99.90;;;;;;2622104;46;20815;31
2022/11/03 04:30:46;;;;;;;;;;;4.00;99.90;;;;;;2603287;54;20790;31
2022/11/03 04:33:23;;;;;;;;;;;4.00;99.90;;;;;;2603516;54;20775;31
2022/11/03 04:35:57;;;;;;;;;;;4.00;99.90;;;;;;2603480;54;20788;31
2022/11/03 04:38:32;;;;;;;;;;;3.90;99.90;;;;;;2621736;46;19934;31
2022/11/03 04:41:08;;;;;;;;;;;3.90;99.90;;;;;;2621944;46;19940;31
2022/11/03 04:43:41;;;;;;;;;;;3.90;99.90;;;;;;2603418;54;20777;31
2022/11/03 04:46:17;;;;;;;;;;;3.80;99.90;;;;;;2621871;46;20466;31
2022/11/03 04:48:54;;;;;;;;;;;3.80;99.90;;;;;;2603412;54;19977;31
2022/11/03 04:51:28;;;;;;;;;;;3.80;99.90;;;;;;2603110;54;19942;31
2022/11/03 04:54:02;;;;;;;;;;;3.80;99.90;;;;;;2603528;54;19977;31
2022/11/03 04:56:39;;;;;;;;;;;3.70;99.90;;;;;;2603017;54;20780;31
2022/11/03 04:59:13;;;;;;;;;;;3.70;99.90;;;;;;2603349;54;20732;31
2022/11/03 05:01:47;;;;;;;;;;;3.70;99.90;;;;;;2621738;46;19954;31
2022/11/03 05:04:25;;;;;;;;;;;3.70;99.90;;;;;;2603209;54;19935;31
2022/11/03 05:06:59;;;;;;;;;;;3.70;99.90;;;;;;2603385;54;19961;31
2022/11/03 05:09:33;;;;;;;;;;;3.70;99.90;;;;;;2603292;54;20802;31
2022/11/03 05:12:13;;;;;;;;;;;3.70;99.90;;;;;;2603220;54;20746;31
2022/11/03 05:14:47;;;;;;;;;;;3.70;99.90;;;;;;2603101;54;20010;31
2022/11/03 05:17:23;;;;;;;;;;;3.70;99.90;;;;;;2603195;54;20737;31
2022/11/03 05:20:00;;;;;;;;;;;3.70;99.90;;;;;;2773360;31;21042;31
2022/11/03 05:22:35;;;;;;;;;;;3.70;99.90;;;;;;2622060;47;20784;31
2022/11/03 05:25:25;;;;;;;;;;;3.70;99.90;;;;;;2604163;47;20704;31
2022/11/03 05:27:57;;;;;;;;;;;3.70;99.90;;;;;;2603438;54;19934;31
2022/11/03 05:30:32;;;;;;;;;;;3.70;99.90;;;;;;2620584;47;20678;31
2022/11/03 05:33:13;;;;;;;;;;;3.60;99.90;;;;;;2603413;54;20713;31
2022/11/03 05:35:49;;;;;;;;;;;3.60;99.90;;;;;;2603090;54;20800;31
2022/11/03 05:38:24;;;;;;;;;;;3.70;99.90;;;;;;2621894;47;20780;31
2022/11/03 05:40:58;;;;;;;;;;;3.70;99.90;;;;;;2621787;47;19945;31
2022/11/03 05:43:33;;;;;;;;;;;3.70;99.90;;;;;;2603171;54;19934;31
2022/11/03 05:46:07;;;;;;;;;;;3.70;99.90;;;;;;2621772;47;19935;31
2022/11/03 05:48:43;;;;;;;;;;;3.70;99.90;;;;;;2603399;54;20729;31
2022/11/03 05:51:21;;;;;;;;;;;3.70;99.90;;;;;;2602851;54;20465;31
2022/11/03 05:53:55;;;;;;;;;;;4.10;99.90;;;;;;2621692;47;20496;31
2022/11/03 05:56:30;;;;;;;;;;;3.70;99.90;;;;;;2603183;54;20765;31
2022/11/03 05:59:04;;;;;;;;;;;3.70;99.90;;;;;;2602951;54;19943;31
2022/11/03 06:01:39;;;;;;;;;;;3.80;99.90;;;;;;2603015;54;19946;31
2022/11/03 06:04:16;;;;;;;;;;;3.80;99.90;;;;;;2603008;54;19947;31
2022/11/03 06:06:54;;;;;;;;;;;3.80;99.90;;;;;;2622004;47;19993;31
2022/11/03 06:09:29;;;;;;;;;;;3.90;99.90;;;;;;2622555;46;20458;31
2022/11/03 06:12:07;;;;;;;;;;;3.90;99.90;;;;;;2619018;46;20935;31
2022/11/03 06:14:42;;;;;;;;;;;3.90;99.90;;;;;;2720890;39;20558;31
2022/11/03 06:17:16;;;;;;;;;;;3.90;99.90;;;;;;2604189;54;20709;31
2022/11/03 06:19:51;;;;;;;;;;;4.00;99.90;;;;;;2622587;46;19935;31
2022/11/03 06:22:28;;;;;;;;;;;4.00;99.90;;;;;;2603869;54;20516;31
2022/11/03 06:25:01;;;;;;;;;;;4.00;99.90;;;;;;2622397;46;20026;31
2022/11/03 06:27:36;;;;;;;;;;;4.10;99.90;;;;;;2622505;46;19983;31
2022/11/03 06:30:22;;;;;;;;;;;4.00;99.90;;;;;;2603756;54;19938;31
2022/11/03 06:32:56;;;;;;;;;;;4.00;99.90;;;;;;2702417;39;20409;31
2022/11/03 06:35:31;;;;;;;;;;;4.10;99.90;;;;;;2702227;39;20469;31
2022/11/03 06:38:07;;;;;;;;;;;4.10;99.90;;;;;;2604028;54;19942;31
2022/11/03 06:40:42;;;;;;;;;;;4.20;99.90;;;;;;2603728;54;19946;31
2022/11/03 06:43:17;;;;;;;;;;;4.20;99.90;;;;;;2720809;39;20397;31
2022/11/03 06:45:52;;;;;;;;;;;4.20;99.90;;;;;;2622023;46;20817;31
2022/11/03 06:48:28;;;;;;;;;;;4.30;99.90;;;;;;2603826;54;19942;31
2022/11/03 06:51:02;;;;;;;;;;;4.60;99.90;;;;;;2603458;54;20845;31
2022/11/03 06:53:39;;;;;;;;;;;5.10;99.90;;;;;;2603862;54;20723;31
2022/11/03 06:56:14;;;;;;;;;;;5.50;99.90;;;;;;2603787;54;19935;31
2022/11/03 06:58:48;;;;;;;;;;;6.00;99.90;;;;;;2603817;54;19942;31
2022/11/03 07:01:23;;;;;;;;;;;6.50;99.90;;;;;;2622490;46;19935;31
2022/11/03 07:04:00;;;;;;;;;;;6.90;99.90;;;;;;2603569;54;20780;31
2022/11/03 07:06:36;;;;;;;;;;;7.40;99.90;;;;;;2603704;54;20786;31
2022/11/03 07:09:16;;;;;;;;;;;7.70;99.90;;;;;;2702169;39;20346;31
2022/11/03 07:11:51;;;;;;;;;;;8.80;99.90;;;;;;2603671;54;20701;31
2022/11/03 07:14:25;;;;;;;;;;;8.20;99.90;;;;;;2603507;54;20817;31
2022/11/03 07:16:59;;;;;;;;;;;8.70;99.90;;;;;;2622268;46;20487;31
2022/11/03 07:19:36;;;;;;;;;;;8.90;99.90;;;;;;2603441;54;20764;31
2022/11/03 07:22:11;;;;;;;;;;;9.10;99.90;;;;;;2622149;46;19934;31
2022/11/03 07:24:49;;;;;;;;;;;9.30;99.90;;;;;;2603725;54;20789;31
2022/11/03 07:27:23;;;;;;;;;;;9.70;99.90;;;;;;2622372;46;20741;31
2022/11/03 07:29:59;;;;;;;;;;;10.00;99.90;;;;;;2622260;46;19934;31
2022/11/03 07:32:33;;;;;;;;;;;10.40;99.90;;;;;;2603410;54;20735;31
2022/11/03 07:35:12;;;;;;;;;;;10.70;99.90;;;;;;2621971;46;19993;31
2022/11/03 07:40:21;;;;;;;;;;;11.10;99.90;;;;;;2703249;39;20445;31
2022/11/03 07:42:57;;;;;;;;;;;11.40;99.90;;;;;;2603512;54;20702;31
2022/11/03 07:45:41;;;;;;;;;;;11.50;99.90;;;;;;2621914;46;19946;31
2022/11/03 07:48:23;;;;;;;;;;;11.50;99.90;;;;;;2603763;54;20792;31
2022/11/03 07:50:57;;;;;;;;;;;11.70;99.90;;;;;;2603388;54;20821;31
2022/11/03 07:53:37;;;;;;;;;;;12.10;99.90;;;;;;2603045;54;20865;31
2022/11/03 07:56:19;;;;;;;;;;;12.30;99.90;;;;;;2603441;54;20759;31
2022/11/03 07:58:55;;;;;;;;;;;12.40;99.90;;;;;;2702234;39;20433;31
2022/11/03 08:01:29;;;;;;;;;;;12.60;99.90;;;;;;2603406;54;20778;31
2022/11/03 08:04:03;;;;;;;;;;;12.90;99.90;;;;;;2603546;54;20693;31
2022/11/03 08:06:38;;;;;;;;;;;13.00;99.90;;;;;;2603759;54;20771;31
2022/11/03 08:09:12;;;;;;;;;;;13.10;99.90;;;;;;2603550;54;19935;31
2022/11/03 08:11:50;;;;;;;;;;;13.20;99.90;;;;;;2702008;39;20461;31
2022/11/03 08:14:26;;;;;;;;;;;13.40;99.90;;;;;;2603732;54;19935;31
2022/11/03 08:17:00;;;;;;;;;;;13.40;99.90;;;;;;2622032;46;20856;31
2022/11/03 08:19:34;;;;;;;;;;;13.40;99.90;;;;;;2603443;54;19935;31
2022/11/03 08:22:09;;;;;;;;;;;13.60;99.90;;;;;;2617943;46;20033;31
2022/11/03 08:24:43;;;;;;;;;;;13.80;99.90;;;;;;2621639;46;19946;31
2022/11/03 08:27:20;;;;;;;;;;;13.90;99.90;;;;;;2621739;46;19934;31
2022/11/03 08:29:56;;;;;;;;;;;13.90;99.90;;;;;;2603350;54;20819;31
2022/11/03 08:32:31;;;;;;;;;;;14.00;99.90;;;;;;2604320;46;21201;31
2022/11/03 08:35:08;;;;;;;;;;;14.20;99.90;;;;;;2621755;46;20042;31
2022/11/03 08:37:43;;;;;;;;;;;14.20;99.90;;;;;;2603403;54;20803;31
2022/11/03 08:40:18;;;;;;;;;;;14.30;99.90;;;;;;2603278;54;19998;31
2022/11/03 08:42:56;;;;;;;;;;;14.30;99.90;;;;;;2603275;54;20788;31
2022/11/03 08:45:30;;;;;;;;;;;14.20;99.90;;;;;;2701942;39;20525;31
2022/11/03 08:48:03;;;;;;;;;;;14.30;99.90;;;;;;2603390;54;19935;31
2022/11/03 08:50:38;;;;;;;;;;;14.40;99.90;;;;;;2720431;39;20381;31
2022/11/03 08:53:12;;;;;;;;;;;14.30;99.90;;;;;;2613121;46;19989;31
2022/11/03 08:55:45;;;;;;;;;;;14.40;99.90;;;;;;2603162;54;20791;31
2022/11/03 08:58:23;;;;;;;;;;;14.40;99.90;;;;;;2613387;46;20762;31
2022/11/03 09:00:58;;;;;;;;;;;14.50;99.90;;;;;;2603360;54;19934;31
2022/11/03 09:03:32;;;;;;;;;;;14.50;99.90;;;;;;2603178;54;19946;31
2022/11/03 09:06:07;;;;;;;;;;;14.50;99.90;;;;;;2603113;54;19941;31
2022/11/03 09:08:43;;;;;;;;;;;14.70;99.90;;;;;;2621995;46;19997;31
2022/11/03 09:11:37;;;;;;;;;;;14.80;99.90;;;;;;2720511;39;20333;31
2022/11/03 09:14:13;;;;;;;;;;;14.90;99.90;;;;;;2621900;47;19957;31
2022/11/03 09:16:47;;;;;;;;;;;14.90;99.90;;;;;;2621758;47;19989;31
2022/11/03 09:19:23;;;;;;;;;;;14.90;99.90;;;;;;2603095;54;20770;31
2022/11/03 09:21:58;;;;;;;;;;;15.10;99.90;;;;;;2603115;54;19942;31
2022/11/03 09:24:32;;;;;;;;;;;15.20;99.90;;;;;;2603220;54;20707;31
2022/11/03 09:27:06;;;;;;;;;;;15.20;99.90;;;;;;2603233;54;20013;31
2022/11/03 09:29:42;;;;;;;;;;;15.20;99.90;;;;;;2621873;47;19935;31
2022/11/03 09:32:37;;;;;;;;;;;15.30;99.90;;;;;;2603059;54;20757;31
2022/11/03 09:35:13;;;;;;;;;;;15.40;99.90;;;;;;2621498;47;20812;31
2022/11/03 09:37:48;;;;;;;;;;;15.30;99.90;;;;;;2621994;47;20767;31
2022/11/03 09:40:24;;;;;;;;;;;15.30;99.90;;;;;;2621280;47;19943;31
2022/11/03 09:42:58;;;;;;;;;;;15.20;99.90;;;;;;2603703;54;20775;31
2022/11/03 09:45:35;;;;;;;;;;;15.10;99.90;;;;;;2603940;54;20761;31
2022/11/03 09:48:12;;;;;;;;;;;15.00;99.90;;;;;;2603821;54;19938;31
2022/11/03 09:50:48;;;;;;;;;;;14.80;99.90;;;;;;2622538;46;19941;31
2022/11/03 09:53:22;;;;;;;;;;;14.80;99.90;;;;;;2604084;54;20756;31
2022/11/03 09:55:57;;;;;;;;;;;14.70;99.90;;;;;;2603926;54;20735;31
2022/11/03 09:58:30;;;;;;;;;;;14.60;99.90;;;;;;2604193;54;19934;31
2022/11/03 10:01:11;;;;;;;;;;;14.50;99.90;;;;;;2622596;46;19934;31
2022/11/03 10:03:44;;;;;;;;;;;14.30;99.90;;;;;;2603880;54;20710;31
2022/11/03 10:06:20;;;;;;;;;;;14.20;99.90;;;;;;2603957;54;20750;31
2022/11/03 10:08:54;;;;;;;;;;;14.20;99.90;;;;;;2603960;54;20771;31
2022/11/03 10:11:30;;;;;;;;;;;14.10;99.90;;;;;;2603841;54;19934;31
2022/11/03 10:14:05;;;;;;;;;;;14.10;99.90;;;;;;2622217;46;19941;31
2022/11/03 10:16:46;;;;;;;;;;;14.10;99.90;;;;;;2603979;54;19934;31
2022/11/03 10:19:27;;;;;;;;;;;14.10;99.90;;;;;;2622318;46;20014;31
2022/11/03 10:22:01;;;;;;;;;;;14.00;99.90;;;;;;2603747;54;19957;31
2022/11/03 10:24:34;;;;;;;;;;;14.00;99.90;;;;;;2603758;54;20827;31
2022/11/03 10:27:08;;;;;;;;;;;14.00;99.90;;;;;;2622342;46;19943;31
2022/11/03 10:29:43;;;;;;;;;;;14.10;99.90;;;;;;2603784;54;19941;31
2022/11/03 10:32:35;;;;;;;;;;;14.10;99.90;;;;;;2622299;46;19939;31
2022/11/03 10:35:33;;;;;;;;;;;14.10;99.90;;;;;;2622287;46;20026;31
2022/11/03 10:38:20;;;;;;;;;;;14.10;99.90;;;;;;2603873;54;20826;31
2022/11/03 10:40:54;;;;;;;;;;;14.00;99.90;;;;;;2603771;54;19935;31
2022/11/03 10:43:29;;;;;;;;;;;14.10;99.90;;;;;;2603415;54;19939;31
2022/11/03 10:46:11;;;;;;;;;;;14.10;99.90;;;;;;2603907;54;19956;31
2022/11/03 10:49:13;;;;;;;;;;;14.10;99.90;;;;;;2622380;46;20710;31
2022/11/03 10:51:47;;;;;;;;;;;14.10;99.90;;;;;;2720727;39;21459;31
2022/11/03 10:54:22;;;;;;;;;;;14.20;99.90;;;;;;2603088;54;21454;31
2022/11/03 10:56:59;;;;;;;;;;;14.10;99.90;;;;;;2603553;54;19942;31
2022/11/03 10:59:36;;;;;;;;;;;14.00;99.90;;;;;;2622337;46;19935;31
2022/11/03 11:02:14;;;;;;;;;;;13.90;99.90;;;;;;2622092;46;20009;31
2022/11/03 11:04:54;;;;;;;;;;;13.90;99.90;;;;;;2603779;54;19966;31
2022/11/03 11:07:35;;;;;;;;;;;13.80;99.90;;;;;;2603750;54;20690;31
2022/11/03 11:10:10;;;;;;;;;;;13.80;99.90;;;;;;2603683;54;19942;31
2022/11/03 11:12:59;;;;;;;;;;;13.70;99.90;;;;;;2603661;54;19942;31
2022/11/03 11:15:36;;;;;;;;;;;13.80;99.90;;;;;;2603417;54;19934;31
2022/11/03 11:18:11;;;;;;;;;;;13.70;99.90;;;;;;2622342;46;19941;31
2022/11/03 11:20:49;;;;;;;;;;;13.80;99.90;;;;;;2621986;46;19941;31
2022/11/03 11:23:51;;;;;;;;;;;13.70;99.90;;;;;;2603738;54;20768;31
2022/11/03 11:26:34;;;;;;;;;;;13.70;99.90;;;;;;2622284;46;19942;31
2022/11/03 11:29:08;;;;;;;;;;;13.70;99.90;;;;;;2622301;46;19946;31
2022/11/03 11:31:43;;;;;;;;;;;13.80;99.90;;;;;;2603547;54;20470;31
2022/11/03 11:34:35;;;;;;;;;;;13.80;99.90;;;;;;2621995;46;20739;31
2022/11/03 11:37:25;;;;;;;;;;;13.80;99.90;;;;;;2603695;54;19934;31
2022/11/03 11:40:02;;;;;;;;;;;13.90;99.90;;;;;;2603579;54;20744;31
2022/11/03 11:42:37;;;;;;;;;;;13.90;99.90;;;;;;2621834;46;20505;31
2022/11/03 11:45:12;;;;;;;;;;;13.90;99.90;;;;;;2622012;46;20797;31
2022/11/03 11:47:50;;;;;;;;;;;13.90;99.90;;;;;;2603222;54;19942;31
2022/11/03 11:50:26;;;;;;;;;;;13.90;99.90;;;;;;2612981;46;20789;31
2022/11/03 11:53:02;;;;;;;;;;;13.90;99.90;;;;;;2603485;54;19941;31
2022/11/03 11:55:41;;;;;;;;;;;13.90;99.90;;;;;;2603694;54;20889;31
2022/11/03 11:58:17;;;;;;;;;;;13.90;99.90;;;;;;2603454;54;20025;31
2022/11/03 12:00:57;;;;;;;;;;;13.90;99.90;;;;;;2603685;54;20758;31
2022/11/03 12:03:36;;;;;;;;;;;13.90;99.90;;;;;;2603628;54;20484;31
2022/11/03 12:06:11;;;;;;;;;;;13.90;99.90;;;;;;2603271;54;20486;31
2022/11/03 12:08:46;;;;;;;;;;;14.00;99.90;;;;;;2606542;46;20819;31
2022/11/03 12:11:42;;;;;;;;;;;14.00;99.90;;;;;;2603589;54;19961;31
2022/11/03 12:14:19;;;;;;;;;;;14.00;99.90;;;;;;2773530;31;21326;31
2022/11/03 12:16:53;;;;;;;;;;;14.00;99.90;;;;;;2603534;54;20025;31
2022/11/03 12:19:30;;;;;;;;;;;14.00;99.90;;;;;;2622101;46;19998;31
2022/11/03 12:22:03;;;;;;;;;;;14.00;99.90;;;;;;2603387;54;19942;31
2022/11/03 12:24:40;;;;;;;;;;;14.00;99.90;;;;;;2609016;46;20799;31
2022/11/03 12:27:41;;;;;;;;;;;14.00;99.90;;;;;;2603701;54;20778;31
2022/11/03 12:30:17;;;;;;;;;;;14.00;99.90;;;;;;2701930;39;20461;31
2022/11/03 12:32:52;;;;;;;;;;;14.00;99.90;;;;;;2603432;54;20524;31
2022/11/03 12:35:26;;;;;;;;;;;14.00;99.90;;;;;;2622056;46;20729;31
2022/11/03 12:38:01;;;;;;;;;;;14.00;99.90;;;;;;2602831;54;20753;31
2022/11/03 12:40:35;;;;;;;;;;;14.00;99.90;;;;;;2602580;54;20726;31
2022/11/03 12:43:11;;;;;;;;;;;14.00;99.90;;;;;;2603290;54;19942;31
2022/11/03 12:45:46;;;;;;;;;;;14.00;99.90;;;;;;2603268;54;20766;31
2022/11/03 12:48:19;;;;;;;;;;;14.10;99.90;;;;;;2701688;39;20341;31
2022/11/03 12:50:54;;;;;;;;;;;14.10;99.90;;;;;;2603159;54;20830;31
2022/11/03 12:53:28;;;;;;;;;;;14.00;99.90;;;;;;2603413;54;19966;31
2022/11/03 12:56:04;;;;;;;;;;;14.00;99.90;;;;;;2602360;54;19997;31
2022/11/03 12:58:41;;;;;;;;;;;14.00;99.90;;;;;;2621814;46;20005;31
2022/11/03 13:01:17;;;;;;;;;;;14.00;99.90;;;;;;2603419;54;19981;31
2022/11/03 13:03:52;;;;;;;;;;;14.00;99.90;;;;;;2603124;54;20012;31
2022/11/03 13:06:27;;;;;;;;;;;14.00;99.90;;;;;;2621823;46;20800;31
2022/11/03 13:09:01;;;;;;;;;;;14.00;99.90;;;;;;2622004;46;20790;31
2022/11/03 13:14:25;;;;;;;;;;;14.00;99.90;;;;;;2603359;54;20474;31
2022/11/03 13:16:59;;;;;;;;;;;14.00;99.90;;;;;;2603624;54;19957;31
2022/11/03 13:19:33;;;;;;;;;;;14.00;99.90;;;;;;2604066;54;20485;31
2022/11/03 13:22:07;;;;;;;;;;;14.00;99.90;;;;;;2603969;54;20713;31
2022/11/03 13:24:41;;;;;;;;;;;14.00;99.90;;;;;;2603915;54;19984;31
2022/11/03 13:27:15;;;;;;;;;;;14.00;99.90;;;;;;2603868;54;20865;31
2022/11/03 13:29:55;;;;;;;;;;;14.10;99.90;;;;;;2604045;54;20699;31
2022/11/03 13:32:29;;;;;;;;;;;14.10;99.90;;;;;;2622503;46;19937;31
2022/11/03 13:35:05;;;;;;;;;;;14.10;99.90;;;;;;2604094;54;19935;31
2022/11/03 13:37:46;;;;;;;;;;;14.10;99.90;;;;;;2603972;54;20724;31
2022/11/03 13:40:20;;;;;;;;;;;14.00;99.90;;;;;;2604214;54;20457;31
2022/11/03 13:43:14;;;;;;;;;;;14.00;99.90;;;;;;2603910;54;19965;31
2022/11/03 13:45:57;;;;;;;;;;;14.00;99.90;;;;;;2622003;46;20021;31
2022/11/03 13:48:31;;;;;;;;;;;13.90;99.90;;;;;;2609426;46;20014;31
2022/11/03 13:51:25;;;;;;;;;;;13.90;99.90;;;;;;2604025;54;19934;31
2022/11/03 13:54:00;;;;;;;;;;;13.80;99.90;;;;;;2604010;54;19993;31
2022/11/03 13:56:54;;;;;;;;;;;13.80;99.90;;;;;;2603778;54;20715;31
2022/11/03 13:59:50;;;;;;;;;;;13.70;99.90;;;;;;2622607;46;20504;31
2022/11/03 14:02:28;;;;;;;;;;;13.70;99.90;;;;;;2604222;54;20025;31
2022/11/03 14:05:22;;;;;;;;;;;13.60;99.90;;;;;;2603877;54;20781;31
2022/11/03 14:07:56;;;;;;;;;;;13.60;99.90;;;;;;2604089;54;20783;31
2022/11/03 14:10:29;;;;;;;;;;;13.50;99.90;;;;;;2774196;31;20464;31
2022/11/03 14:12:59;;;;;;;;;;;13.60;99.90;;;;;;2603958;54;20814;31
2022/11/03 14:15:33;;;;;;;;;;;13.50;99.90;;;;;;2603860;54;19941;31
2022/11/03 14:18:11;;;;;;;;;;;13.50;99.90;;;;;;2604008;54;20532;31
2022/11/03 14:20:44;;;;;;;;;;;13.40;99.90;;;;;;2604225;54;19957;31
2022/11/03 14:23:18;;;;;;;;;;;13.40;99.90;;;;;;2614672;46;19960;31
2022/11/03 14:25:51;;;;;;;;;;;13.40;99.90;;;;;;2622507;46;19941;31
2022/11/03 14:28:46;;;;;;;;;;;13.40;99.90;;;;;;2603752;54;20750;31
2022/11/03 14:31:21;;;;;;;;;;;13.30;99.90;;;;;;2603631;54;19976;31
2022/11/03 14:33:59;;;;;;;;;;;13.30;99.90;;;;;;2603569;54;19935;31
2022/11/03 14:36:34;;;;;;;;;;;13.30;99.90;;;;;;2603838;54;19942;31
2022/11/03 14:39:08;;;;;;;;;;;13.30;99.90;;;;;;2603913;54;20020;31
2022/11/03 14:44:27;;;;;;;;;;;13.20;99.90;;;;;;2603701;54;19985;31
2022/11/03 14:47:03;;;;;;;;;;;13.20;99.90;;;;;;2702604;39;20389;31
2022/11/03 14:49:40;;;;;;;;;;;13.20;99.90;;;;;;2622255;46;19934;31
2022/11/03 14:52:15;;;;;;;;;;;13.20;99.90;;;;;;2603798;54;20737;31
2022/11/03 14:54:52;;;;;;;;;;;13.10;99.90;;;;;;2622467;46;19935;31
2022/11/03 14:57:26;;;;;;;;;;;13.10;99.90;;;;;;2603644;54;20009;31
2022/11/03 14:59:59;;;;;;;;;;;13.00;99.90;;;;;;2721237;39;20396;31
2022/11/03 15:02:34;;;;;;;;;;;13.00;99.90;;;;;;2603684;54;20770;31
2022/11/03 15:05:42;;;;;;;;;;;13.00;99.90;;;;;;2603469;54;20848;31
2022/11/03 15:08:07;;;;;;;;;;;12.90;99.90;;;;;;2720800;39;20489;31
2022/11/03 15:10:42;;;;;;;;;;;12.90;99.90;;;;;;2622376;46;19946;31
2022/11/03 15:13:16;;;;;;;;;;;12.80;99.90;;;;;;2622226;46;21325;31
2022/11/03 15:15:50;;;;;;;;;;;12.80;99.90;;;;;;2622212;46;20845;31
2022/11/03 15:18:24;;;;;;;;;;;12.70;99.90;;;;;;2603665;54;19953;31
2022/11/03 15:21:02;;;;;;;;;;;12.70;99.90;;;;;;2603658;54;20863;31
2022/11/03 15:23:35;;;;;;;;;;;12.70;99.90;;;;;;2603506;54;19942;31
2022/11/03 15:26:28;;;;;;;;;;;12.60;99.90;;;;;;2622176;46;19935;31
2022/11/03 15:29:02;;;;;;;;;;;12.50;99.90;;;;;;2603585;54;19991;31
2022/11/03 15:31:36;;;;;;;;;;;12.50;99.90;;;;;;2603768;54;19980;31
2022/11/03 15:34:12;;;;;;;;;;;12.50;99.90;;;;;;2622299;46;19934;31
2022/11/03 15:36:50;;;;;;;;;;;12.40;99.90;;;;;;2603739;54;20785;31
2022/11/03 15:39:24;;;;;;;;;;;12.30;99.90;;;;;;2622226;46;20750;31
2022/11/03 15:42:00;;;;;;;;;;;12.30;99.90;;;;;;2603922;54;20714;31
2022/11/03 15:44:35;;;;;;;;;;;12.20;99.90;;;;;;2603604;54;20811;31
2022/11/03 15:47:10;;;;;;;;;;;12.10;99.90;;;;;;2603854;46;19993;31
2022/11/03 15:49:48;;;;;;;;;;;12.10;99.90;;;;;;2603444;54;19957;31
2022/11/03 15:52:26;;;;;;;;;;;12.00;99.90;;;;;;2603681;54;19935;31
2022/11/03 15:54:59;;;;;;;;;;;12.00;99.90;;;;;;2603455;54;19958;31
2022/11/03 15:57:34;;;;;;;;;;;12.00;99.90;;;;;;2603690;54;19939;31
2022/11/03 16:00:09;;;;;;;;;;;11.90;99.90;;;;;;2603491;54;20448;31